Marathon, FL (33050)

5:32 PM EDT on September 01, 2015 (GMT -0400)
Key Colony Beach FL | | Change Station
CLOSE
Current Station
Personal Weather Station
Location: Marathon, FL
Elevation: 10 ft
Nearby Weather Stations

Elev 10 ft 24.72 °N, 81.02 °W | Updated 1 minute ago

Clear
Clear
88.6 °F
Feels Like 124 °F
N
2.0
Wind Variable Wind from East
Gusts 2.0 mph

Today
High -- | Low -- °F
--% Chance of Precip.
Yesterday
High -- | Low -- °F
Precip. -- in
7:04 AM 7:42 PM
Waning Gibbous, 86% visible
Pressure 30.01 in
Visibility 10.0 miles
Clouds Few 2500 ft
Few 25000 ft
Heat Index 124 °F
Dew Point 89 °F
Humidity 100%
Rainfall 0.00 in
Snow Depth Not available.
UV 6 out of 12
Pollen 5.30 out of 12
Air Quality Not available.
Flu Activity Not available.
METAR KNQX 012053Z 12006KT 10SM FEW025 FEW250 32/24 A3001 RMK AO2 SLP161 T03170244 58016 $
Pressure 30.01 in
Visibility 10.0 miles
Clouds Few 2500 ft
Few 25000 ft
Heat Index 124 °F
Dew Point 89 °F
Humidity 100%
Rainfall 0.00 in
Snow Depth Not available.
UV 6 out of 12
Pollen 5.30 out of 12
Air Quality Not available.
Flu Activity Not available.
METAR KNQX 012053Z 12006KT 10SM FEW025 FEW250 32/24 A3001 RMK AO2 SLP161 T03170244 58016 $

10-Day Weather Forecast

×

Almanac

Astronomy

Sep. 01, 2015 Rise Set
Actual Time
Civil Twilight
Nautical Twilight
Astronomical Twilight
Moon
Length of Visible Light
Length of Day
Tomorrow will be .
, % of the Moon is Illuminated

Today's Extremes

State Highs State Lows

Community

WunderPhotos

Upload Photos

1,851,628 photos uploaded!

WunderBlogs® & News

Nearby

Air Quality

  Air Quality AQ Index Pollutant
Not available.

Snow Depth

Station Depth Elevation

Earthquake Activity

City Distance Mag. Time & Date
Minimum magnitude displayed is 2.5.

Coastal Water Temperatures

Place Temperature

Stations

Nearby Weather Stations

Station Location Temp. Windchill Dew Point Humidity Wind Precip. Elev Updated Type